Terminal Aerodrome Forecast
Issued by NWS Sioux Falls, SD

Home | Current Version | Previous Version | Text Only | Print | Product List | Glossary On
Versions: 1 2 3 4 5 6 7 8 9 10 11 12 13 14 15 16 17
000
FTUS43 KFSD 201734
TAFFSD
TAF
KFSD 201734Z 2018/2118 27005KT P6SM BKN035
     FM210000 17005KT P6SM SCT035
     FM210600 18008KT P6SM SCT030 BKN150
     FM211300 18013KT P6SM BKN015=

USA.gov is the U.S. government's official web portal to all federal, state and local government web resources and services.